Emmett, MI (48022)

9:38 PM EDT on May 29, 2015 (GMT -0400)
capac,mi | | Change Station
CLOSE
Current Station
Personal Weather Station
Location: Capac, MI
Elevation: 833 ft
Nearby Weather Stations

Elev 833 ft 43.03 °N, 82.93 °W | Updated 2 seconds ago

Clear
Clear
71.0 °F
Feels Like 71 °F
N
9.0
Wind Variable Wind from SSE
Gusts 12.0 mph

Today
High -- | Low -- °F
--% Chance of Precip.
Yesterday
High -- | Low -- °F
Precip. -- in
5:56 AM 9:01 PM
Waxing Gibbous, 87% visible
Pressure 29.99 in
Visibility 10.0 miles
Clouds Clear
Heat Index 71 °F
Dew Point 66 °F
Humidity 83%
Rainfall 0.04 in
Snow Depth Not available.
UV 0 out of 12
Pollen 8.00 out of 12
Air Quality Not available.
Flu Activity Sporadic
METAR KPHN 300116Z AUTO 16005KT 10SM CLR 22/18 A2999 RMK AO2

More Conditions Fewer Conditions

Pressure 29.99 in
Visibility 10.0 miles
Clouds Clear
Heat Index 71 °F
Dew Point 66 °F
Humidity 83%
Rainfall 0.04 in
Snow Depth Not available.
UV 0 out of 12
Pollen 8.00 out of 12
Air Quality Not available.
Flu Activity Sporadic
METAR KPHN 300116Z AUTO 16005KT 10SM CLR 22/18 A2999 RMK AO2

More Conditions Fewer Conditions

10-Day Weather Forecast

Almanac

Astronomy

May. 29, 2015 Rise Set
Actual Time
Civil Twilight
Nautical Twilight
Astronomical Twilight
Moon
Length of Visible Light
Length of Day
Tomorrow will be .
, % of the Moon is Illuminated

Today's Extremes

State Highs State Lows

Community

WunderPhotos

Upload Photos

1,825,415 photos uploaded!

WunderBlogs® & News

Nearby

Air Quality

  Air Quality AQ Index Pollutant
Not available.

Snow Depth

Station Depth Elevation

Earthquake Activity

City Distance Mag. Time & Date
Minimum magnitude displayed is 2.5.

Coastal Water Temperatures

Place Temperature

Stations

Nearby Weather Stations

Station Location Temp. Windchill Dew Point Humidity Wind Precip. Elev Updated Type